Terminal Aerodrome Forecast
Issued by NWS Tampa Bay Area, FL

Home | Current Version | Previous Version | Text Only | Print | Product List | Glossary On
Versions: 1 2 3 4 5 6 7 8 9 10 11 12 13 14 15
000
FTUS42 KTBW 291700
TAFFMY
TAF
KFMY 291740Z 2918/3018 15006KT P6SM VCTS SCT040CB SCT100
     FM292000 20006KT P6SM VCTS SCT030CB BKN080
      TEMPO 2920/2923 VRB15G25KT 3SM TSRA BKN030CB
     FM300000 VRB05KT P6SM SCT025 BKN130
     FM300400 09003KT P6SM SCT250
     FM301400 12008KT P6SM SCT025 SCT250
     FM301700 13008KT P6SM VCTS SCT035CB SCT100=

USA.gov is the U.S. government's official web portal to all federal, state and local government web resources and services.